sensor_id;sensor_type;location;lat;lon;timestamp;pressure;altitude;pressure_sealevel;temperature;humidity
62976;BME280;49071;0.000;0.000;2023-11-22T06:46:28;102294.47;;;19.30;
62976;BME280;49071;0.000;0.000;2023-11-22T06:49:28;102286.69;;;19.29;
62976;BME280;49071;0.000;0.000;2023-11-22T06:52:29;102280.34;;;19.33;
62976;BME280;49071;0.000;0.000;2023-11-22T06:55:29;102276.88;;;19.32;
62976;BME280;49071;0.000;0.000;2023-11-22T06:58:31;102275.13;;;19.46;
62976;BME280;49071;0.000;0.000;2023-11-22T07:01:31;102277.94;;;19.57;
62976;BME280;49071;0.000;0.000;2023-11-22T07:04:31;102293.53;;;19.60;
62976;BME280;49071;0.000;0.000;2023-11-22T07:07:31;102293.63;;;19.59;
62976;BME280;49071;0.000;0.000;2023-11-22T07:10:32;102306.06;;;19.55;
62976;BME280;49071;0.000;0.000;2023-11-22T07:13:34;102299.59;;;19.47;
62976;BME280;49071;0.000;0.000;2023-11-22T07:16:34;102318.41;;;19.39;
62976;BME280;49071;0.000;0.000;2023-11-22T07:19:34;102330.03;;;19.35;
62976;BME280;49071;0.000;0.000;2023-11-22T07:22:37;102343.66;;;19.27;
62976;BME280;49071;0.000;0.000;2023-11-22T07:25:38;102345.13;;;19.17;
62976;BME280;49071;0.000;0.000;2023-11-22T07:28:38;102339.72;;;19.04;
62976;BME280;49071;0.000;0.000;2023-11-22T07:31:39;102354.97;;;18.98;
62976;BME280;49071;0.000;0.000;2023-11-22T07:34:40;102361.22;;;18.96;
62976;BME280;49071;0.000;0.000;2023-11-22T07:37:41;102370.72;;;18.98;
62976;BME280;49071;0.000;0.000;2023-11-22T07:40:44;102382.38;;;18.93;
62976;BME280;49071;0.000;0.000;2023-11-22T07:43:44;102387.09;;;18.86;
62976;BME280;49071;0.000;0.000;2023-11-22T07:46:45;102391.66;;;18.83;
62976;BME280;49071;0.000;0.000;2023-11-22T07:49:45;102398.84;;;18.79;
62976;BME280;49071;0.000;0.000;2023-11-22T07:52:46;102407.72;;;18.77;
62976;BME280;49071;0.000;0.000;2023-11-22T07:55:48;102414.06;;;18.73;
62976;BME280;49071;0.000;0.000;2023-11-22T07:58:48;102417.69;;;18.71;
62976;BME280;49071;0.000;0.000;2023-11-22T08:01:49;102411.78;;;18.67;
62976;BME280;49071;0.000;0.000;2023-11-22T08:04:50;102412.63;;;18.68;
62976;BME280;49071;0.000;0.000;2023-11-22T08:07:51;102394.16;;;18.69;
62976;BME280;49071;0.000;0.000;2023-11-22T08:10:52;102386.13;;;18.72;
62976;BME280;49071;0.000;0.000;2023-11-22T08:13:54;102378.88;;;18.77;
62976;BME280;49071;0.000;0.000;2023-11-22T08:16:57;102366.28;;;18.83;
62976;BME280;49071;0.000;0.000;2023-11-22T08:19:58;102378.91;;;18.92;
62976;BME280;49071;0.000;0.000;2023-11-22T08:23:00;102382.72;;;19.02;
62976;BME280;49071;0.000;0.000;2023-11-22T08:26:00;102376.97;;;19.11;
62976;BME280;49071;0.000;0.000;2023-11-22T08:29:01;102372.22;;;19.17;
62976;BME280;49071;0.000;0.000;2023-11-22T08:32:01;102394.47;;;19.26;
62976;BME280;49071;0.000;0.000;2023-11-22T08:35:02;102389.63;;;19.33;
62976;BME280;49071;0.000;0.000;2023-11-22T08:38:07;102399.44;;;19.45;
62976;BME280;49071;0.000;0.000;2023-11-22T08:41:09;102406.78;;;19.54;
62976;BME280;49071;0.000;0.000;2023-11-22T08:44:13;102417.53;;;19.65;
62976;BME280;49071;0.000;0.000;2023-11-22T08:47:13;102424.81;;;19.75;
62976;BME280;49071;0.000;0.000;2023-11-22T08:50:14;102427.53;;;19.89;
62976;BME280;49071;0.000;0.000;2023-11-22T08:53:15;102436.44;;;20.00;
62976;BME280;49071;0.000;0.000;2023-11-22T08:56:17;102423.34;;;20.14;
62976;BME280;49071;0.000;0.000;2023-11-22T08:59:17;102423.00;;;20.20;
62976;BME280;49071;0.000;0.000;2023-11-22T09:02:18;102417.38;;;20.26;
62976;BME280;49071;0.000;0.000;2023-11-22T09:05:18;102433.63;;;20.32;
62976;BME280;49071;0.000;0.000;2023-11-22T09:08:19;102429.00;;;20.36;
62976;BME280;49071;0.000;0.000;2023-11-22T09:11:20;102413.41;;;20.33;
62976;BME280;49071;0.000;0.000;2023-11-22T09:14:22;102417.19;;;20.29;
62976;BME280;49071;0.000;0.000;2023-11-22T09:17:23;102410.50;;;20.23;
62976;BME280;49071;0.000;0.000;2023-11-22T09:20:23;102403.81;;;20.18;
62976;BME280;49071;0.000;0.000;2023-11-22T09:23:24;102402.69;;;20.08;
62976;BME280;49071;0.000;0.000;2023-11-22T09:26:26;102402.28;;;20.00;
62976;BME280;49071;0.000;0.000;2023-11-22T09:29:26;102400.00;;;19.94;
62976;BME280;49071;0.000;0.000;2023-11-22T09:32:26;102414.19;;;19.92;
62976;BME280;49071;0.000;0.000;2023-11-22T09:35:27;102412.59;;;19.90;
62976;BME280;49071;0.000;0.000;2023-11-22T09:38:34;102416.88;;;19.77;
62976;BME280;49071;0.000;0.000;2023-11-22T09:41:35;102405.25;;;19.94;
62976;BME280;49071;0.000;0.000;2023-11-22T09:44:35;102401.47;;;20.14;
62976;BME280;49071;0.000;0.000;2023-11-22T09:47:35;102402.34;;;20.42;
62976;BME280;49071;0.000;0.000;2023-11-22T09:50:39;102406.72;;;20.56;
62976;BME280;49071;0.000;0.000;2023-11-22T09:53:48;102399.94;;;20.66;
62976;BME280;49071;0.000;0.000;2023-11-22T09:56:52;102406.41;;;20.75;
62976;BME280;49071;0.000;0.000;2023-11-22T09:59:53;102408.28;;;20.86;
62976;BME280;49071;0.000;0.000;2023-11-22T10:02:55;102388.44;;;20.95;
62976;BME280;49071;0.000;0.000;2023-11-22T10:05:55;102382.03;;;20.99;
62976;BME280;49071;0.000;0.000;2023-11-22T10:08:56;102362.75;;;20.98;
62976;BME280;49071;0.000;0.000;2023-11-22T10:12:01;102366.44;;;20.96;
62976;BME280;49071;0.000;0.000;2023-11-22T10:15:11;102360.63;;;20.91;
62976;BME280;49071;0.000;0.000;2023-11-22T10:18:12;102356.69;;;20.84;
62976;BME280;49071;0.000;0.000;2023-11-22T10:24:21;102363.06;;;20.52;
62976;BME280;49071;0.000;0.000;2023-11-22T10:27:21;102367.41;;;20.40;
62976;BME280;49071;0.000;0.000;2023-11-22T10:30:24;102377.19;;;20.38;
62976;BME280;49071;0.000;0.000;2023-11-22T10:33:24;102378.28;;;20.34;
62976;BME280;49071;0.000;0.000;2023-11-22T10:36:25;102375.84;;;20.31;
62976;BME280;49071;0.000;0.000;2023-11-22T10:39:26;102386.56;;;20.28;
62976;BME280;49071;0.000;0.000;2023-11-22T10:42:26;102397.81;;;20.30;
62976;BME280;49071;0.000;0.000;2023-11-22T10:45:28;102395.00;;;20.33;
62976;BME280;49071;0.000;0.000;2023-11-22T10:48:29;102404.41;;;20.37;
62976;BME280;49071;0.000;0.000;2023-11-22T10:51:31;102411.38;;;20.38;
62976;BME280;49071;0.000;0.000;2023-11-22T10:54:31;102408.56;;;20.41;
62976;BME280;49071;0.000;0.000;2023-11-22T10:57:32;102420.38;;;20.48;
62976;BME280;49071;0.000;0.000;2023-11-22T11:00:36;102403.13;;;20.57;
62976;BME280;49071;0.000;0.000;2023-11-22T11:03:41;102401.63;;;20.67;
62976;BME280;49071;0.000;0.000;2023-11-22T11:06:42;102400.84;;;20.79;
62976;BME280;49071;0.000;0.000;2023-11-22T11:09:44;102409.84;;;20.89;
62976;BME280;49071;0.000;0.000;2023-11-22T11:12:46;102404.84;;;20.98;
62976;BME280;49071;0.000;0.000;2023-11-22T11:15:46;102402.50;;;21.07;
62976;BME280;49071;0.000;0.000;2023-11-22T11:18:47;102396.09;;;21.11;
62976;BME280;49071;0.000;0.000;2023-11-22T11:21:48;102397.78;;;21.12;
62976;BME280;49071;0.000;0.000;2023-11-22T11:24:48;102394.59;;;21.07;
62976;BME280;49071;0.000;0.000;2023-11-22T11:27:59;102385.31;;;21.02;
62976;BME280;49071;0.000;0.000;2023-11-22T11:31:00;102375.25;;;20.95;
62976;BME280;49071;0.000;0.000;2023-11-22T11:34:00;102370.50;;;20.87;
62976;BME280;49071;0.000;0.000;2023-11-22T11:37:01;102368.53;;;20.77;
62976;BME280;49071;0.000;0.000;2023-11-22T11:40:03;102366.78;;;20.64;
62976;BME280;49071;0.000;0.000;2023-11-22T11:43:30;102350.72;;;20.54;
62976;BME280;49071;0.000;0.000;2023-11-22T11:46:39;102332.09;;;20.44;
62976;BME280;49071;0.000;0.000;2023-11-22T11:49:39;102329.28;;;20.33;
62976;BME280;49071;0.000;0.000;2023-11-22T11:52:40;102328.16;;;20.23;
62976;BME280;49071;0.000;0.000;2023-11-22T11:55:40;102327.59;;;20.18;
62976;BME280;49071;0.000;0.000;2023-11-22T11:58:41;102322.34;;;20.18;
62976;BME280;49071;0.000;0.000;2023-11-22T12:01:42;102330.22;;;20.18;
62976;BME280;49071;0.000;0.000;2023-11-22T12:04:43;102325.44;;;20.24;
62976;BME280;49071;0.000;0.000;2023-11-22T12:07:44;102339.81;;;20.33;
62976;BME280;49071;0.000;0.000;2023-11-22T12:10:44;102315.47;;;20.43;
62976;BME280;49071;0.000;0.000;2023-11-22T12:13:48;102312.88;;;20.57;
62976;BME280;49071;0.000;0.000;2023-11-22T12:16:51;102306.91;;;20.67;
62976;BME280;49071;0.000;0.000;2023-11-22T12:19:51;102302.88;;;20.76;
62976;BME280;49071;0.000;0.000;2023-11-22T12:22:52;102290.91;;;20.84;
62976;BME280;49071;0.000;0.000;2023-11-22T12:25:53;102253.88;;;20.87;
62976;BME280;49071;0.000;0.000;2023-11-22T12:28:54;102260.81;;;20.88;
62976;BME280;49071;0.000;0.000;2023-11-22T12:31:55;102260.19;;;20.84;
62976;BME280;49071;0.000;0.000;2023-11-22T12:34:57;102267.72;;;20.77;
62976;BME280;49071;0.000;0.000;2023-11-22T12:37:58;102241.16;;;20.67;
62976;BME280;49071;0.000;0.000;2023-11-22T12:40:58;102245.34;;;20.57;
62976;BME280;49071;0.000;0.000;2023-11-22T12:44:03;102250.19;;;20.49;
62976;BME280;49071;0.000;0.000;2023-11-22T12:47:03;102249.00;;;20.41;
62976;BME280;49071;0.000;0.000;2023-11-22T12:50:28;102248.81;;;20.30;
62976;BME280;49071;0.000;0.000;2023-11-22T12:53:29;102246.88;;;20.20;
62976;BME280;49071;0.000;0.000;2023-11-22T12:56:29;102235.25;;;20.10;
62976;BME280;49071;0.000;0.000;2023-11-22T12:59:29;102235.53;;;20.06;
62976;BME280;49071;0.000;0.000;2023-11-22T13:02:30;102235.53;;;20.06;
62976;BME280;49071;0.000;0.000;2023-11-22T13:05:30;102258.03;;;20.10;
62976;BME280;49071;0.000;0.000;2023-11-22T13:08:31;102263.69;;;20.18;
62976;BME280;49071;0.000;0.000;2023-11-22T13:11:31;102263.19;;;20.25;
62976;BME280;49071;0.000;0.000;2023-11-22T13:14:33;102262.41;;;20.37;
62976;BME280;49071;0.000;0.000;2023-11-22T13:17:40;102264.28;;;20.48;
62976;BME280;49071;0.000;0.000;2023-11-22T13:20:41;102278.38;;;20.61;
62976;BME280;49071;0.000;0.000;2023-11-22T13:23:42;102291.69;;;20.72;
62976;BME280;49071;0.000;0.000;2023-11-22T13:26:42;102289.22;;;20.83;
62976;BME280;49071;0.000;0.000;2023-11-22T13:29:43;102288.53;;;20.93;
62976;BME280;49071;0.000;0.000;2023-11-22T13:32:44;102271.91;;;20.93;
62976;BME280;49071;0.000;0.000;2023-11-22T13:35:44;102280.00;;;20.90;
62976;BME280;49071;0.000;0.000;2023-11-22T13:38:45;102297.97;;;20.83;
62976;BME280;49071;0.000;0.000;2023-11-22T13:41:45;102327.56;;;20.73;
62976;BME280;49071;0.000;0.000;2023-11-22T13:44:46;102324.59;;;20.65;
62976;BME280;49071;0.000;0.000;2023-11-22T13:47:47;102291.91;;;20.55;
62976;BME280;49071;0.000;0.000;2023-11-22T13:50:48;102267.09;;;20.46;
62976;BME280;49071;0.000;0.000;2023-11-22T13:53:49;102271.25;;;20.36;
62976;BME280;49071;0.000;0.000;2023-11-22T13:56:53;102270.16;;;20.26;
62976;BME280;49071;0.000;0.000;2023-11-22T13:59:53;102253.25;;;20.16;
62976;BME280;49071;0.000;0.000;2023-11-22T14:02:55;102245.19;;;20.05;
62976;BME280;49071;0.000;0.000;2023-11-22T14:05:56;102250.94;;;19.98;
62976;BME280;49071;0.000;0.000;2023-11-22T14:08:57;102245.00;;;19.94;
62976;BME280;49071;0.000;0.000;2023-11-22T14:11:57;102237.97;;;19.95;
62976;BME280;49071;0.000;0.000;2023-11-22T14:14:58;102241.06;;;20.01;
62976;BME280;49071;0.000;0.000;2023-11-22T14:17:59;102228.41;;;20.08;
62976;BME280;49071;0.000;0.000;2023-11-22T14:20:59;102226.03;;;20.17;
62976;BME280;49071;0.000;0.000;2023-11-22T14:23:59;102221.88;;;20.27;
62976;BME280;49071;0.000;0.000;2023-11-22T14:27:00;102222.97;;;20.37;
62976;BME280;49071;0.000;0.000;2023-11-22T14:30:00;102223.16;;;20.48;
62976;BME280;49071;0.000;0.000;2023-11-22T14:33:05;102222.59;;;20.56;
62976;BME280;49071;0.000;0.000;2023-11-22T14:36:09;102208.41;;;20.59;
62976;BME280;49071;0.000;0.000;2023-11-22T14:39:10;102213.19;;;20.66;
62976;BME280;49071;0.000;0.000;2023-11-22T14:42:12;102208.03;;;20.77;
62976;BME280;49071;0.000;0.000;2023-11-22T14:45:12;102231.31;;;20.83;
62976;BME280;49071;0.000;0.000;2023-11-22T14:48:12;102239.81;;;20.74;
62976;BME280;49071;0.000;0.000;2023-11-22T14:51:13;102254.25;;;20.55;
62976;BME280;49071;0.000;0.000;2023-11-22T14:54:13;102255.97;;;20.56;
62976;BME280;49071;0.000;0.000;2023-11-22T14:57:13;102247.31;;;20.54;
62976;BME280;49071;0.000;0.000;2023-11-22T15:00:14;102239.78;;;20.48;
62976;BME280;49071;0.000;0.000;2023-11-22T15:03:14;102243.81;;;20.40;
62976;BME280;49071;0.000;0.000;2023-11-22T15:06:15;102254.72;;;20.34;
62976;BME280;49071;0.000;0.000;2023-11-22T15:09:15;102275.41;;;20.26;
62976;BME280;49071;0.000;0.000;2023-11-22T15:12:15;102288.16;;;20.18;
62976;BME280;49071;0.000;0.000;2023-11-22T15:15:15;102297.47;;;20.10;
62976;BME280;49071;0.000;0.000;2023-11-22T15:18:16;102299.72;;;20.02;
62976;BME280;49071;0.000;0.000;2023-11-22T15:21:17;102296.81;;;19.92;
62976;BME280;49071;0.000;0.000;2023-11-22T15:24:18;102303.94;;;19.91;
62976;BME280;49071;0.000;0.000;2023-11-22T15:27:18;102286.31;;;19.92;
62976;BME280;49071;0.000;0.000;2023-11-22T15:30:18;102275.59;;;19.95;
62976;BME280;49071;0.000;0.000;2023-11-22T15:33:19;102267.25;;;20.03;
62976;BME280;49071;0.000;0.000;2023-11-22T15:36:19;102265.19;;;20.08;
62976;BME280;49071;0.000;0.000;2023-11-22T15:39:19;102248.75;;;20.18;
62976;BME280;49071;0.000;0.000;2023-11-22T15:42:22;102235.88;;;20.27;
62976;BME280;49071;0.000;0.000;2023-11-22T15:45:22;102227.31;;;20.38;
62976;BME280;49071;0.000;0.000;2023-11-22T15:48:23;102210.41;;;20.42;
62976;BME280;49071;0.000;0.000;2023-11-22T15:51:25;102222.03;;;20.51;
62976;BME280;49071;0.000;0.000;2023-11-22T15:54:26;102230.31;;;20.59;
62976;BME280;49071;0.000;0.000;2023-11-22T15:57:26;102211.19;;;20.70;
62976;BME280;49071;0.000;0.000;2023-11-22T16:00:27;102212.00;;;20.84;
62976;BME280;49071;0.000;0.000;2023-11-22T16:03:27;102207.59;;;20.97;
62976;BME280;49071;0.000;0.000;2023-11-22T16:06:28;102191.41;;;21.03;
62976;BME280;49071;0.000;0.000;2023-11-22T16:09:28;102199.19;;;21.04;
62976;BME280;49071;0.000;0.000;2023-11-22T16:12:28;102189.94;;;20.99;
62976;BME280;49071;0.000;0.000;2023-11-22T16:15:32;102186.94;;;20.91;
62976;BME280;49071;0.000;0.000;2023-11-22T16:18:33;102194.50;;;20.83;
62976;BME280;49071;0.000;0.000;2023-11-22T16:21:33;102190.50;;;20.78;
62976;BME280;49071;0.000;0.000;2023-11-22T16:24:34;102185.91;;;20.67;
62976;BME280;49071;0.000;0.000;2023-11-22T16:27:35;102197.41;;;20.52;
62976;BME280;49071;0.000;0.000;2023-11-22T16:30:35;102198.09;;;20.42;
62976;BME280;49071;0.000;0.000;2023-11-22T16:33:35;102204.78;;;20.34;
62976;BME280;49071;0.000;0.000;2023-11-22T16:36:35;102222.84;;;20.26;
62976;BME280;49071;0.000;0.000;2023-11-22T16:39:37;102218.16;;;20.17;
62976;BME280;49071;0.000;0.000;2023-11-22T16:42:37;102213.28;;;20.11;
62976;BME280;49071;0.000;0.000;2023-11-22T16:45:38;102211.19;;;20.16;
62976;BME280;49071;0.000;0.000;2023-11-22T16:48:38;102210.91;;;20.20;
62976;BME280;49071;0.000;0.000;2023-11-22T16:51:38;102204.97;;;20.31;
62976;BME280;49071;0.000;0.000;2023-11-22T16:54:38;102201.22;;;20.35;
62976;BME280;49071;0.000;0.000;2023-11-22T16:57:40;102192.19;;;20.39;
62976;BME280;49071;0.000;0.000;2023-11-22T17:00:40;102186.53;;;20.45;
62976;BME280;49071;0.000;0.000;2023-11-22T17:03:40;102189.47;;;20.54;
62976;BME280;49071;0.000;0.000;2023-11-22T17:06:41;102176.63;;;20.62;
62976;BME280;49071;0.000;0.000;2023-11-22T17:09:42;102176.69;;;20.74;
62976;BME280;49071;0.000;0.000;2023-11-22T17:12:42;102179.38;;;20.86;
62976;BME280;49071;0.000;0.000;2023-11-22T17:15:43;102172.63;;;20.95;
62976;BME280;49071;0.000;0.000;2023-11-22T17:18:43;102166.69;;;21.05;
62976;BME280;49071;0.000;0.000;2023-11-22T17:21:43;102157.09;;;21.16;
62976;BME280;49071;0.000;0.000;2023-11-22T17:24:44;102157.50;;;21.23;
62976;BME280;49071;0.000;0.000;2023-11-22T17:27:46;102153.44;;;21.31;
62976;BME280;49071;0.000;0.000;2023-11-22T17:30:46;102140.06;;;21.34;
62976;BME280;49071;0.000;0.000;2023-11-22T17:33:46;102137.66;;;21.31;
62976;BME280;49071;0.000;0.000;2023-11-22T17:36:46;102128.34;;;21.26;
62976;BME280;49071;0.000;0.000;2023-11-22T17:39:47;102121.94;;;21.17;
62976;BME280;49071;0.000;0.000;2023-11-22T17:42:49;102109.06;;;21.01;
62976;BME280;49071;0.000;0.000;2023-11-22T17:45:49;102103.59;;;20.91;
62976;BME280;49071;0.000;0.000;2023-11-22T17:48:50;102108.41;;;20.85;
62976;BME280;49071;0.000;0.000;2023-11-22T17:51:51;102104.31;;;20.81;
62976;BME280;49071;0.000;0.000;2023-11-22T17:54:54;102100.06;;;20.66;
62976;BME280;49071;0.000;0.000;2023-11-22T17:57:56;102098.88;;;20.58;
62976;BME280;49071;0.000;0.000;2023-11-22T18:00:56;102101.84;;;20.53;
62976;BME280;49071;0.000;0.000;2023-11-22T18:03:57;102089.91;;;20.48;
62976;BME280;49071;0.000;0.000;2023-11-22T18:06:57;102088.38;;;20.32;
62976;BME280;49071;0.000;0.000;2023-11-22T18:09:58;102086.75;;;20.17;
62976;BME280;49071;0.000;0.000;2023-11-22T18:12:58;102074.63;;;20.15;
62976;BME280;49071;0.000;0.000;2023-11-22T18:15:58;102070.09;;;20.04;
62976;BME280;49071;0.000;0.000;2023-11-22T18:18:59;102068.44;;;20.16;
62976;BME280;49071;0.000;0.000;2023-11-22T18:22:01;102056.28;;;20.27;
62976;BME280;49071;0.000;0.000;2023-11-22T18:25:02;102050.63;;;20.33;
62976;BME280;49071;0.000;0.000;2023-11-22T18:28:02;102057.16;;;20.40;
62976;BME280;49071;0.000;0.000;2023-11-22T18:31:05;102044.38;;;20.48;
62976;BME280;49071;0.000;0.000;2023-11-22T18:34:06;102040.56;;;20.51;
62976;BME280;49071;0.000;0.000;2023-11-22T18:37:06;102042.81;;;20.57;
62976;BME280;49071;0.000;0.000;2023-11-22T18:40:07;102022.22;;;20.64;
62976;BME280;49071;0.000;0.000;2023-11-22T18:43:07;102006.56;;;20.75;
62976;BME280;49071;0.000;0.000;2023-11-22T18:46:08;102009.06;;;20.88;
62976;BME280;49071;0.000;0.000;2023-11-22T18:49:08;102013.63;;;20.99;
62976;BME280;49071;0.000;0.000;2023-11-22T18:52:08;102023.19;;;21.12;
62976;BME280;49071;0.000;0.000;2023-11-22T18:55:09;102023.91;;;21.26;
62976;BME280;49071;0.000;0.000;2023-11-22T18:58:09;102024.00;;;21.37;
62976;BME280;49071;0.000;0.000;2023-11-22T19:01:09;102022.97;;;21.39;
62976;BME280;49071;0.000;0.000;2023-11-22T19:04:10;102004.97;;;21.34;
62976;BME280;49071;0.000;0.000;2023-11-22T19:07:10;102016.94;;;21.25;
62976;BME280;49071;0.000;0.000;2023-11-22T19:10:12;102022.13;;;21.14;
62976;BME280;49071;0.000;0.000;2023-11-22T19:13:13;102000.00;;;21.05;
62976;BME280;49071;0.000;0.000;2023-11-22T19:16:13;101991.81;;;20.97;
62976;BME280;49071;0.000;0.000;2023-11-22T19:19:13;101991.50;;;20.89;
62976;BME280;49071;0.000;0.000;2023-11-22T19:22:13;101984.16;;;20.81;
62976;BME280;49071;0.000;0.000;2023-11-22T19:25:14;101995.16;;;20.74;
62976;BME280;49071;0.000;0.000;2023-11-22T19:28:14;101981.59;;;20.68;
62976;BME280;49071;0.000;0.000;2023-11-22T19:31:15;101966.69;;;20.56;
62976;BME280;49071;0.000;0.000;2023-11-22T19:34:15;101965.69;;;20.45;
62976;BME280;49071;0.000;0.000;2023-11-22T19:37:16;101936.22;;;20.40;
62976;BME280;49071;0.000;0.000;2023-11-22T19:40:16;101923.50;;;20.34;
62976;BME280;49071;0.000;0.000;2023-11-22T19:43:16;101918.78;;;20.26;
62976;BME280;49071;0.000;0.000;2023-11-22T19:46:17;101912.13;;;20.21;
62976;BME280;49071;0.000;0.000;2023-11-22T19:49:17;101897.41;;;20.19;
62976;BME280;49071;0.000;0.000;2023-11-22T19:52:17;101899.00;;;20.21;
62976;BME280;49071;0.000;0.000;2023-11-22T19:55:18;101883.84;;;20.24;
62976;BME280;49071;0.000;0.000;2023-11-22T19:58:19;101892.56;;;20.25;
62976;BME280;49071;0.000;0.000;2023-11-22T20:01:19;101882.81;;;20.27;
62976;BME280;49071;0.000;0.000;2023-11-22T20:04:20;101879.84;;;20.31;
62976;BME280;49071;0.000;0.000;2023-11-22T20:07:20;101876.19;;;20.34;
62976;BME280;49071;0.000;0.000;2023-11-22T20:10:20;101874.50;;;20.45;
62976;BME280;49071;0.000;0.000;2023-11-22T20:13:24;101874.84;;;20.53;
62976;BME280;49071;0.000;0.000;2023-11-22T20:16:24;101878.34;;;20.53;
62976;BME280;49071;0.000;0.000;2023-11-22T20:19:24;101878.50;;;20.50;
62976;BME280;49071;0.000;0.000;2023-11-22T20:22:25;101877.97;;;20.46;
62976;BME280;49071;0.000;0.000;2023-11-22T20:25:25;101877.22;;;20.44;
62976;BME280;49071;0.000;0.000;2023-11-22T20:28:25;101888.19;;;20.38;
62976;BME280;49071;0.000;0.000;2023-11-22T20:31:25;101889.31;;;20.34;
62976;BME280;49071;0.000;0.000;2023-11-22T20:34:26;101881.75;;;20.29;
62976;BME280;49071;0.000;0.000;2023-11-22T20:37:26;101857.56;;;20.24;
62976;BME280;49071;0.000;0.000;2023-11-22T20:40:26;101858.00;;;20.19;
62976;BME280;49071;0.000;0.000;2023-11-22T20:43:26;101846.22;;;20.12;
62976;BME280;49071;0.000;0.000;2023-11-22T20:46:27;101831.00;;;20.04;
62976;BME280;49071;0.000;0.000;2023-11-22T20:49:27;101830.78;;;19.95;
62976;BME280;49071;0.000;0.000;2023-11-22T20:52:27;101837.47;;;19.87;
62976;BME280;49071;0.000;0.000;2023-11-22T20:55:27;101836.31;;;19.78;
